Time;durP1;ratioP1;P1;durP2;ratioP2;P2;SDS_P1;SDS_P2;PMS_P1;PMS_P2;Temp;Humidity;BMP_temperature;BMP_pressure;BME280_temperature;BME280_humidity;BME280_pressure;Samples;Min_cycle;Max_cycle;Signal;HPM_P1;HPM_P2
2022/10/23 00:01:54;;;;;;;1.83;1.17;;;;;;;9.98;100.00;99090.72;5067466;28;20052;-75
2022/10/23 00:04:24;;;;;;;5.38;1.48;;;;;;;9.87;100.00;99089.31;5077842;28;20599;-76
2022/10/23 00:06:51;;;;;;;4.97;1.60;;;;;;;9.67;100.00;99075.38;5070731;28;20533;-75
2022/10/23 00:09:20;;;;;;;5.68;1.70;;;;;;;9.62;100.00;99058.78;5072318;28;20052;-75
2022/10/23 00:11:48;;;;;;;5.78;1.50;;;;;;;9.70;100.00;99073.13;5066501;28;20055;-75
2022/10/23 00:14:16;;;;;;;7.57;1.90;;;;;;;9.63;100.00;99055.88;5069706;28;20056;-75
2022/10/23 00:16:43;;;;;;;7.68;1.33;;;;;;;9.69;100.00;99060.56;5064199;28;20048;-77
2022/10/23 00:19:12;;;;;;;6.43;1.45;;;;;;;9.64;100.00;99057.59;5069854;28;20044;-75
2022/10/23 00:21:39;;;;;;;4.80;1.85;;;;;;;9.69;100.00;99070.59;5074028;28;20052;-76
2022/10/23 00:24:07;;;;;;;3.67;1.52;;;;;;;9.66;100.00;99057.41;5069377;28;20545;-76
2022/10/23 00:26:34;;;;;;;3.50;1.67;;;;;;;9.70;100.00;99053.31;5071819;28;20047;-76
2022/10/23 00:29:00;;;;;;;11.50;1.80;;;;;;;9.67;100.00;99054.50;5068672;28;20052;-75
2022/10/23 00:31:27;;;;;;;9.05;2.00;;;;;;;9.60;100.00;99033.69;5073916;28;20048;-75
2022/10/23 00:33:53;;;;;;;5.03;2.00;;;;;;;9.63;100.00;99061.31;5065565;28;20056;-75
2022/10/23 00:36:22;;;;;;;7.50;1.70;;;;;;;9.53;100.00;99045.28;5074262;28;20062;-76
2022/10/23 00:38:49;;;;;;;3.35;2.10;;;;;;;9.53;100.00;99053.44;5071555;28;20048;-75
2022/10/23 00:41:18;;;;;;;7.90;1.80;;;;;;;9.60;100.00;99061.66;5070796;28;20045;-75
2022/10/23 00:43:57;;;;;;;8.57;1.73;;;;;;;9.62;100.00;99056.94;5072077;28;20040;-76
2022/10/23 00:46:24;;;;;;;2.85;1.63;;;;;;;9.65;100.00;99052.97;5079449;28;20048;-76
2022/10/23 00:48:50;;;;;;;7.00;1.50;;;;;;;9.55;100.00;99053.25;5074286;28;20044;-75
2022/10/23 00:51:18;;;;;;;5.88;1.70;;;;;;;9.54;100.00;99057.84;5069611;28;20072;-77
2022/10/23 00:53:50;;;;;;;2.65;1.42;;;;;;;9.48;100.00;99050.38;5069440;28;20036;-76
2022/10/23 00:56:17;;;;;;;3.75;1.42;;;;;;;9.44;100.00;99032.81;5075542;28;20052;-75
2022/10/23 00:58:43;;;;;;;11.50;3.25;;;;;;;9.60;100.00;99049.97;5076916;28;20413;-76
2022/10/23 01:01:18;;;;;;;5.57;1.38;;;;;;;9.52;100.00;99040.88;5067996;28;20067;-76
2022/10/23 01:03:46;;;;;;;5.15;1.65;;;;;;;9.38;100.00;99038.97;5073725;28;20106;-75
2022/10/23 01:06:19;;;;;;;5.85;1.40;;;;;;;9.42;100.00;99053.00;5073526;28;20050;-76
2022/10/23 01:08:53;;;;;;;8.98;1.80;;;;;;;9.21;100.00;99038.19;5060538;28;20101;-75
2022/10/23 01:11:24;;;;;;;12.15;2.53;;;;;;;9.43;100.00;99057.41;5075168;28;20058;-76
2022/10/23 01:14:00;;;;;;;7.63;1.95;;;;;;;9.41;100.00;99046.72;5069711;28;20050;-75
2022/10/23 01:16:34;;;;;;;6.57;2.30;;;;;;;9.34;100.00;99024.06;5076845;28;20075;-75
2022/10/23 01:19:11;;;;;;;7.97;2.33;;;;;;;9.22;100.00;99031.75;5074024;28;20060;-75
2022/10/23 01:21:49;;;;;;;6.05;1.95;;;;;;;9.32;100.00;99045.94;5060944;28;20044;-75
2022/10/23 01:24:27;;;;;;;11.43;2.70;;;;;;;9.23;100.00;99041.59;5069633;28;20127;-76
2022/10/23 01:27:11;;;;;;;3.92;2.00;;;;;;;9.25;100.00;99031.41;5066480;28;20132;-75
2022/10/23 01:29:43;;;;;;;5.78;1.90;;;;;;;9.10;100.00;99006.91;5073982;28;20044;-75
2022/10/23 01:32:16;;;;;;;11.70;2.00;;;;;;;9.13;100.00;99028.25;5068128;28;20063;-76
2022/10/23 01:34:47;;;;;;;11.70;2.05;;;;;;;9.00;100.00;99017.13;5071648;28;20418;-75
2022/10/23 01:37:19;;;;;;;4.30;1.67;;;;;;;8.94;100.00;99007.00;5080032;28;20064;-75
2022/10/23 01:39:49;;;;;;;10.10;2.05;;;;;;;8.93;100.00;99018.91;5070125;28;20407;-77
2022/10/23 01:42:21;;;;;;;7.57;1.80;;;;;;;9.04;100.00;99032.03;5068514;28;20052;-76
2022/10/23 01:44:51;;;;;;;5.57;2.10;;;;;;;8.98;100.00;99032.75;5068132;28;20040;-75
2022/10/23 01:47:20;;;;;;;;;;;;;;;9.08;100.00;99035.22;5073357;28;20048;-75
2022/10/23 01:49:48;;;;;;;3.20;1.65;;;;;;;9.09;100.00;99031.50;5077236;28;19927;-75
2022/10/23 01:52:17;;;;;;;2.65;1.27;;;;;;;9.03;100.00;99033.91;5073598;28;20049;-77
2022/10/23 01:54:46;;;;;;;7.03;1.63;;;;;;;8.94;100.00;99024.13;5077989;28;20127;-76
2022/10/23 01:57:16;;;;;;;5.40;1.98;;;;;;;8.89;100.00;99029.22;5070374;28;20063;-76
2022/10/23 01:59:46;;;;;;;;;;;;;;;8.83;100.00;99024.53;5071485;28;20305;-76
2022/10/23 02:02:15;;;;;;;9.40;1.70;;;;;;;8.83;100.00;99024.53;5070518;28;20007;-76
2022/10/23 02:04:49;;;;;;;6.22;1.92;;;;;;;8.86;100.00;99026.88;5075084;28;20059;-76
2022/10/23 02:07:16;;;;;;;13.73;3.92;;;;;;;8.90;100.00;99032.78;5072624;28;20773;-76
2022/10/23 02:09:42;;;;;;;2.95;1.65;;;;;;;8.83;100.00;99016.41;5072300;28;20055;-76
2022/10/23 02:12:12;;;;;;;6.00;2.00;;;;;;;8.90;100.00;99011.09;5078872;28;20053;-76
2022/10/23 02:14:48;;;;;;;6.75;2.95;;;;;;;8.90;100.00;99011.09;5066738;28;20052;-76
2022/10/23 02:17:21;;;;;;;7.93;1.90;;;;;;;9.03;100.00;99016.78;5068643;28;20143;-76
2022/10/23 02:19:54;;;;;;;3.42;1.65;;;;;;;8.86;100.00;98988.94;5066414;28;20049;-76
2022/10/23 02:22:26;;;;;;;3.95;1.70;;;;;;;8.92;100.00;98995.50;5071107;28;20090;-76
2022/10/23 02:24:56;;;;;;;3.60;1.60;;;;;;;8.85;100.00;98998.06;5073363;28;20638;-76
2022/10/23 02:27:30;;;;;;;6.63;1.45;;;;;;;8.81;100.00;98991.34;5075513;28;20055;-76
2022/10/23 02:30:03;;;;;;;7.38;1.92;;;;;;;8.70;100.00;98961.91;5071220;28;20127;-76
2022/10/23 02:32:30;;;;;;;5.32;1.60;;;;;;;8.49;100.00;98942.56;5067628;28;20045;-76
2022/10/23 02:34:56;;;;;;;11.20;1.88;;;;;;;8.72;100.00;98985.13;5072762;28;20048;-76
2022/10/23 02:37:24;;;;;;;4.95;1.75;;;;;;;8.89;100.00;98990.44;5079990;28;20098;-76
2022/10/23 02:39:51;;;;;;;3.58;1.40;;;;;;;8.95;100.00;98992.44;5077411;28;20048;-76
2022/10/23 02:42:22;;;;;;;8.23;2.70;;;;;;;8.87;100.00;98977.06;5072610;28;20041;-76
2022/10/23 02:45:00;;;;;;;2.45;1.75;;;;;;;8.94;100.00;98977.19;5071776;28;20563;-76
2022/10/23 02:47:41;;;;;;;3.08;1.70;;;;;;;8.94;100.00;98974.47;5066113;28;20044;-76
2022/10/23 02:50:15;;;;;;;8.82;1.75;;;;;;;9.06;100.00;98978.47;5069246;28;20510;-76
2022/10/23 02:52:49;;;;;;;4.63;1.73;;;;;;;9.09;100.00;98977.25;5070335;28;20131;-76
2022/10/23 02:55:25;;;;;;;5.60;1.40;;;;;;;8.96;100.00;98958.91;5071667;28;20049;-76
2022/10/23 02:57:57;;;;;;;1.95;1.50;;;;;;;9.04;100.00;98970.50;5075210;28;20044;-76
2022/10/23 03:00:24;;;;;;;5.57;1.50;;;;;;;8.97;100.00;98969.56;5072256;28;20060;-76
2022/10/23 03:02:57;;;;;;;1.70;1.20;;;;;;;8.91;100.00;98950.44;5070809;28;20047;-76
2022/10/23 03:05:26;;;;;;;6.28;1.48;;;;;;;8.95;100.00;98963.44;5071847;28;20040;-76
2022/10/23 03:07:53;;;;;;;5.33;2.00;;;;;;;8.91;100.00;98947.72;5072096;28;20045;-75
2022/10/23 03:10:20;;;;;;;2.70;1.15;;;;;;;9.00;100.00;98963.78;5073420;28;20334;-76
2022/10/23 03:12:47;;;;;;;6.28;2.00;;;;;;;8.92;100.00;98938.56;5070683;28;20494;-76
2022/10/23 03:15:15;;;;;;;1.80;1.30;;;;;;;8.86;100.00;98951.81;5073697;28;20514;-76
2022/10/23 03:17:42;;;;;;;3.10;1.75;;;;;;;8.85;100.00;98950.13;5078084;28;20040;-76
2022/10/23 03:20:11;;;;;;;4.65;1.92;;;;;;;8.85;100.00;98947.44;5070746;28;20049;-76
2022/10/23 03:22:39;;;;;;;1.55;1.30;;;;;;;8.74;100.00;98945.13;5076180;28;20055;-76
2022/10/23 03:25:06;;;;;;;9.23;2.60;;;;;;;8.82;100.00;98938.78;5073065;28;20041;-76
2022/10/23 03:27:33;;;;;;;6.95;1.80;;;;;;;8.71;100.00;98909.41;5071830;28;20051;-76
2022/10/23 03:29:59;;;;;;;2.70;1.60;;;;;;;8.75;100.00;98949.53;5072639;28;20052;-76
2022/10/23 03:32:26;;;;;;;5.35;1.60;;;;;;;8.82;100.00;98941.50;5071017;28;20052;-76
2022/10/23 03:34:52;;;;;;;3.40;1.63;;;;;;;8.85;100.00;98943.84;5068379;28;20048;-76
2022/10/23 03:37:20;;;;;;;6.53;1.75;;;;;;;8.71;100.00;98909.41;5071898;28;20052;-76
2022/10/23 03:39:47;;;;;;;5.32;1.40;;;;;;;8.85;100.00;98942.00;5070092;28;20044;-76
2022/10/23 03:42:13;;;;;;;13.57;2.15;;;;;;;8.73;100.00;98939.88;5070611;28;20049;-76
2022/10/23 03:44:40;;;;;;;2.92;1.40;;;;;;;8.70;100.00;98946.47;5071735;28;20063;-76
2022/10/23 03:47:08;;;;;;;6.75;1.67;;;;;;;8.70;100.00;98938.34;5072965;28;20055;-76
2022/10/23 03:49:35;;;;;;;3.70;1.45;;;;;;;8.75;100.00;98941.38;5077259;28;20049;-77
2022/10/23 03:52:01;;;;;;;2.60;1.60;;;;;;;8.65;100.00;98938.88;5070550;28;20086;-76
2022/10/23 03:54:30;;;;;;;2.53;1.42;;;;;;;8.55;100.00;98937.44;5073936;28;20131;-76
2022/10/23 03:56:57;;;;;;;5.93;1.77;;;;;;;8.39;100.00;98920.22;5066961;28;20052;-76
2022/10/23 03:59:23;;;;;;;4.93;1.90;;;;;;;8.49;100.00;98942.56;5075140;28;20068;-76
2022/10/23 04:01:50;;;;;;;3.03;1.40;;;;;;;8.32;100.00;98914.66;5070820;28;20052;-76
2022/10/23 04:04:17;;;;;;;9.95;2.38;;;;;;;8.48;100.00;98938.16;5072845;28;20043;-76
2022/10/23 04:06:43;;;;;;;5.65;1.98;;;;;;;8.38;100.00;98933.94;5070536;28;20044;-76
2022/10/23 04:09:10;;;;;;;8.00;1.92;;;;;;;8.38;100.00;98933.94;5075732;28;20080;-76
2022/10/23 04:11:38;;;;;;;2.83;1.70;;;;;;;8.40;100.00;98927.34;5070548;28;20576;-76
2022/10/23 04:14:05;;;;;;;5.55;1.90;;;;;;;8.37;100.00;98927.69;5066051;28;20403;-75
2022/10/23 04:16:31;;;;;;;4.15;1.80;;;;;;;8.39;100.00;98938.34;5070705;28;20049;-76
2022/10/23 04:18:58;;;;;;;19.88;3.17;;;;;;;8.34;100.00;98941.59;5077227;28;20055;-76
2022/10/23 04:21:24;;;;;;;7.00;2.47;;;;;;;8.37;100.00;98946.66;5070702;28;20059;-76
2022/10/23 04:23:51;;;;;;;2.83;1.73;;;;;;;8.35;100.00;98940.53;5080920;28;20051;-76
2022/10/23 04:26:17;;;;;;;2.20;1.70;;;;;;;8.32;100.00;98939.06;5071177;28;20072;-76
2022/10/23 04:28:45;;;;;;;8.98;1.90;;;;;;;8.37;100.00;98941.22;5064074;28;20048;-76
2022/10/23 04:31:12;;;;;;;6.60;1.80;;;;;;;8.15;100.00;98927.41;5075946;28;20062;-76
2022/10/23 04:33:38;;;;;;;4.20;2.00;;;;;;;8.27;100.00;98944.13;5067903;28;20486;-75
2022/10/23 04:36:06;;;;;;;3.33;2.15;;;;;;;8.16;100.00;98931.00;5063470;28;20501;-76
2022/10/23 04:38:32;;;;;;;6.63;2.00;;;;;;;8.25;100.00;98943.47;5070089;28;20057;-75
2022/10/23 04:40:59;;;;;;;3.35;1.60;;;;;;;8.27;100.00;98932.47;5075346;28;20053;-76
2022/10/23 04:43:25;;;;;;;3.00;1.73;;;;;;;8.18;100.00;98928.09;5060058;28;20456;-76
2022/10/23 04:45:54;;;;;;;7.70;2.00;;;;;;;8.14;100.00;98927.59;5065961;28;20049;-75
2022/10/23 04:48:21;;;;;;;6.20;1.77;;;;;;;8.15;100.00;98919.28;5071271;28;20048;-76
2022/10/23 04:50:56;;;;;;;2.30;1.63;;;;;;;8.18;100.00;98926.22;5067774;28;20494;-75
2022/10/23 04:53:22;;;;;;;4.65;1.70;;;;;;;8.27;100.00;98943.28;5073917;28;20074;-76
2022/10/23 04:55:50;;;;;;;7.80;3.78;;;;;;;8.20;100.00;98939.59;5073475;28;20040;-75
2022/10/23 04:58:17;;;;;;;5.95;1.67;;;;;;;8.22;100.00;98945.66;5071709;28;20450;-76
2022/10/23 05:00:43;;;;;;;3.15;1.88;;;;;;;8.10;100.00;98934.38;5072572;28;20475;-76
2022/10/23 05:03:15;;;;;;;7.07;1.95;;;;;;;8.09;100.00;98944.38;5070185;28;20052;-76
2022/10/23 05:05:42;;;;;;;3.53;1.67;;;;;;;8.09;100.00;98935.41;5068080;28;20039;-75
2022/10/23 05:08:09;;;;;;;3.55;1.60;;;;;;;8.08;100.00;98939.13;5072208;28;20492;-76
2022/10/23 05:10:36;;;;;;;5.78;2.13;;;;;;;8.09;100.00;98947.06;5069240;28;20143;-76
2022/10/23 05:13:02;;;;;;;3.35;1.98;;;;;;;8.02;100.00;98916.28;5069414;28;20131;-76
2022/10/23 05:15:29;;;;;;;5.30;2.00;;;;;;;8.14;100.00;98928.47;5070443;28;20071;-76
2022/10/23 05:18:02;;;;;;;3.67;1.48;;;;;;;8.31;100.00;98931.09;5074063;28;20049;-76
2022/10/23 05:20:35;;;;;;;7.95;2.38;;;;;;;8.30;100.00;98934.81;5083300;28;20048;-76
2022/10/23 05:23:06;;;;;;;2.00;1.75;;;;;;;8.16;100.00;98936.41;5068335;28;20045;-75
2022/10/23 05:25:33;;;;;;;4.72;2.17;;;;;;;8.23;100.00;98941.94;5073686;28;20044;-75
2022/10/23 05:27:59;;;;;;;16.70;2.20;;;;;;;8.18;100.00;98923.53;5074416;28;20166;-76
2022/10/23 05:30:26;;;;;;;3.65;1.60;;;;;;;8.12;100.00;98903.41;5079338;28;20055;-76
2022/10/23 05:32:53;;;;;;;3.50;1.90;;;;;;;8.25;100.00;98920.94;5077649;28;20059;-75
2022/10/23 05:35:23;;;;;;;3.08;1.60;;;;;;;8.35;100.00;98920.75;5074323;28;20468;-76
2022/10/23 05:37:52;;;;;;;;;;;;;;;8.33;100.00;98912.78;5080662;28;20048;-76
2022/10/23 05:40:19;;;;;;;2.50;1.75;;;;;;;8.25;100.00;98892.03;5077548;28;19926;-76
2022/10/23 05:42:45;;;;;;;4.53;1.73;;;;;;;8.37;100.00;98897.88;5077416;28;20055;-76
2022/10/23 05:45:12;;;;;;;1.95;1.65;;;;;;;8.58;100.00;98920.81;5079866;28;20060;-76
2022/10/23 05:47:38;;;;;;;2.70;1.63;;;;;;;8.50;100.00;98897.31;5076303;28;20042;-76
2022/10/23 05:50:06;;;;;;;3.85;1.35;;;;;;;8.50;100.00;98872.94;5076653;28;20135;-76
2022/10/23 05:52:32;;;;;;;7.68;1.73;;;;;;;8.56;100.00;98902.03;5074940;28;20048;-76
2022/10/23 05:55:00;;;;;;;6.25;1.80;;;;;;;8.49;100.00;98880.25;5071702;28;20056;-76
2022/10/23 05:57:27;;;;;;;6.93;1.50;;;;;;;8.56;100.00;98895.78;5065729;28;20048;-75
2022/10/23 05:59:53;;;;;;;4.75;1.38;;;;;;;8.68;100.00;98899.75;5074997;28;20056;-75
2022/10/23 06:02:20;;;;;;;3.05;1.50;;;;;;;8.51;100.00;98888.19;5072834;28;20053;-75
2022/10/23 06:04:46;;;;;;;8.50;1.48;;;;;;;8.52;100.00;98872.75;5056776;28;20049;-76
2022/10/23 06:07:13;;;;;;;2.30;1.35;;;;;;;8.53;100.00;98877.16;5064598;28;20052;-76
2022/10/23 06:09:40;;;;;;;1.92;1.25;;;;;;;8.56;100.00;98883.06;5075283;28;20052;-75
2022/10/23 06:12:08;;;;;;;5.53;2.53;;;;;;;8.62;100.00;98879.63;5081818;28;20048;-76
2022/10/23 06:14:34;;;;;;;3.00;2.00;;;;;;;8.68;100.00;98892.47;5069720;28;20052;-76
2022/10/23 06:17:01;;;;;;;8.70;1.45;;;;;;;8.47;100.00;98860.59;5077666;28;20135;-76
2022/10/23 06:19:27;;;;;;;5.70;1.30;;;;;;;8.64;100.00;98882.16;5067915;28;20047;-76
2022/10/23 06:21:54;;;;;;;6.78;1.50;;;;;;;8.60;100.00;98878.97;5079107;28;20070;-76
2022/10/23 06:24:20;;;;;;;9.23;1.85;;;;;;;8.76;100.00;98888.88;5072125;28;20571;-76
2022/10/23 06:26:47;;;;;;;6.65;1.40;;;;;;;8.79;100.00;98888.53;5069226;28;20047;-76
2022/10/23 06:29:15;;;;;;;1.63;1.30;;;;;;;8.89;100.00;98890.16;5072017;28;20059;-75
2022/10/23 06:31:42;;;;;;;3.22;1.60;;;;;;;8.96;100.00;98888.41;5073003;28;20052;-75
2022/10/23 06:34:11;;;;;;;1.27;1.15;;;;;;;8.93;100.00;98861.66;5081872;28;20063;-76
2022/10/23 06:36:38;;;;;;;6.60;1.30;;;;;;;9.03;100.00;98875.78;5070650;28;20036;-75
2022/10/23 06:39:05;;;;;;;4.55;1.02;;;;;;;9.16;100.00;98873.28;5077867;28;20053;-76
2022/10/23 06:41:31;;;;;;;1.60;1.25;;;;;;;9.16;100.00;98861.63;5070257;28;20098;-76
2022/10/23 06:43:58;;;;;;;5.50;1.45;;;;;;;9.32;100.00;98871.44;5081137;28;20047;-76
2022/10/23 06:46:28;;;;;;;2.15;1.23;;;;;;;9.43;100.00;98876.44;5071843;28;20535;-76
2022/10/23 06:48:55;;;;;;;10.38;1.77;;;;;;;9.40;100.00;98852.41;5071317;28;20188;-76
2022/10/23 06:51:22;;;;;;;9.18;2.17;;;;;;;9.40;100.00;98846.97;5067608;28;20064;-76
2022/10/23 06:53:50;;;;;;;9.07;3.28;;;;;;;9.59;100.00;98872.75;5069966;28;20059;-76
2022/10/23 06:56:16;;;;;;;2.00;1.50;;;;;;;9.65;100.00;98874.72;5071797;28;20060;-76
2022/10/23 06:58:43;;;;;;;5.35;1.60;;;;;;;9.73;100.00;98874.59;5068593;28;20059;-76
2022/10/23 07:01:12;;;;;;;4.25;1.23;;;;;;;9.79;100.00;98866.75;5071794;28;20056;-76
2022/10/23 07:03:40;;;;;;;2.70;1.50;;;;;;;9.87;100.00;98872.09;5067704;28;20186;-76
2022/10/23 07:06:08;;;;;;;2.05;1.55;;;;;;;9.76;100.00;98843.53;5071064;28;20049;-76
2022/10/23 07:08:35;;;;;;;6.65;1.58;;;;;;;10.06;100.00;98859.81;5061599;28;20049;-76
2022/10/23 07:11:04;;;;;;;2.83;1.33;;;;;;;9.96;100.00;98837.53;5068960;28;20174;-76
2022/10/23 07:13:30;;;;;;;8.73;1.20;;;;;;;9.98;100.00;98833.59;5066372;28;20049;-76
2022/10/23 07:15:57;;;;;;;2.38;1.40;;;;;;;10.02;100.00;98836.78;5061977;28;20048;-76
2022/10/23 07:18:23;;;;;;;2.55;1.30;;;;;;;10.14;100.00;98848.81;5076694;28;20507;-76
2022/10/23 07:20:57;;;;;;;7.13;1.23;;;;;;;10.26;100.00;98863.59;5086088;28;20127;-77
2022/10/23 07:23:24;;;;;;;5.03;2.80;;;;;;;10.16;100.00;98843.19;5078355;28;20073;-77
2022/10/23 07:25:50;;;;;;;9.35;6.15;;;;;;;10.30;100.00;98874.09;5071585;28;20040;-76
2022/10/23 07:28:17;;;;;;;4.40;3.80;;;;;;;10.16;100.00;98846.78;5072323;28;20063;-76
2022/10/23 07:30:43;;;;;;;5.40;3.80;;;;;;;10.21;100.00;98836.19;5071322;28;20060;-75
2022/10/23 07:33:11;;;;;;;6.38;2.50;;;;;;;10.40;100.00;98867.38;5069986;28;20044;-75
2022/10/23 07:35:39;;;;;;;2.80;1.90;;;;;;;10.50;100.00;98868.94;5070476;28;20040;-75
2022/10/23 07:38:06;;;;;;;9.45;2.35;;;;;;;10.45;100.00;98854.03;5072226;28;20403;-76
2022/10/23 07:40:33;;;;;;;3.80;2.40;;;;;;;10.57;100.00;98870.69;5076096;28;20049;-76
2022/10/23 07:42:59;;;;;;;4.10;2.10;;;;;;;10.58;100.00;98874.25;5067399;28;20049;-75
2022/10/23 07:45:26;;;;;;;6.20;2.08;;;;;;;10.64;100.00;98868.03;5068986;28;20044;-76
2022/10/23 07:47:52;;;;;;;9.32;2.55;;;;;;;10.69;100.00;98872.91;5075813;28;20044;-76
2022/10/23 07:50:19;;;;;;;4.82;2.50;;;;;;;10.75;100.00;98867.53;5070699;28;20059;-76
2022/10/23 07:52:46;;;;;;;6.10;1.95;;;;;;;10.90;100.00;98863.91;5069275;28;20391;-76
2022/10/23 07:55:14;;;;;;;10.93;7.47;;;;;;;10.91;100.00;98852.81;5068064;28;20059;-76
2022/10/23 07:57:41;;;;;;;8.90;6.03;;;;;;;11.11;100.00;98863.06;5075194;28;20483;-76
2022/10/23 08:00:09;;;;;;;6.57;3.95;;;;;;;11.08;100.00;98860.72;5076377;28;20052;-76
2022/10/23 08:02:36;;;;;;;6.60;2.63;;;;;;;11.31;100.00;98887.72;5070705;28;20045;-76
2022/10/23 08:05:03;;;;;;;3.50;2.45;;;;;;;11.40;100.00;98893.88;5069116;28;20066;-76
2022/10/23 08:07:30;;;;;;;4.78;2.83;;;;;;;11.31;100.00;98863.25;5073513;28;20041;-76
2022/10/23 08:09:56;;;;;;;2.05;1.67;;;;;;;11.44;100.00;98871.50;5073601;28;20053;-75
2022/10/23 08:12:24;;;;;;;1.42;1.27;;;;;;;11.62;100.00;98871.00;5076767;28;20252;-76
2022/10/23 08:14:51;;;;;;;3.40;1.60;;;;;;;11.74;100.00;98889.50;5063614;28;20040;-76
2022/10/23 08:17:17;;;;;;;1.95;1.45;;;;;;;11.86;100.00;98883.31;5076210;28;20084;-75
2022/10/23 08:19:46;;;;;;;3.50;1.75;;;;;;;11.93;100.00;98871.66;5071836;28;20373;-76
2022/10/23 08:22:12;;;;;;;2.00;1.23;;;;;;;12.13;100.00;98878.03;5072806;28;20044;-76
2022/10/23 08:24:39;;;;;;;3.63;1.40;;;;;;;12.09;100.00;98843.22;5071722;28;20044;-76
2022/10/23 08:27:08;;;;;;;3.50;1.42;;;;;;;12.16;100.00;98847.69;5070747;28;20087;-76
2022/10/23 08:29:36;;;;;;;1.77;1.25;;;;;;;12.38;100.00;98867.44;5070605;28;20048;-76
2022/10/23 08:32:02;;;;;;;3.85;1.48;;;;;;;12.42;100.00;98853.41;5069165;28;20052;-76
2022/10/23 08:34:30;;;;;;;6.53;1.15;;;;;;;12.63;100.00;98872.38;5072355;28;20052;-76
2022/10/23 08:36:56;;;;;;;2.22;1.30;;;;;;;12.56;100.00;98845.06;5063229;28;20534;-76
2022/10/23 08:39:23;;;;;;;3.95;1.58;;;;;;;12.73;100.00;98833.78;5069147;28;20051;-75
2022/10/23 08:41:52;;;;;;;2.78;1.50;;;;;;;12.80;100.00;98821.00;5061243;28;20055;-75
2022/10/23 08:44:23;;;;;;;1.58;1.40;;;;;;;12.86;100.00;98825.63;5066313;28;20097;-76
2022/10/23 08:46:59;;;;;;;3.17;1.27;;;;;;;13.11;100.00;98835.91;5070328;28;20041;-76
2022/10/23 08:49:41;;;;;;;3.63;1.08;;;;;;;13.08;100.00;98823.53;5071397;28;20040;-76
2022/10/23 08:52:15;;;;;;;3.95;1.10;;;;;;;13.08;100.00;98815.34;5068605;28;20105;-76
2022/10/23 08:55:04;;;;;;;6.20;1.20;;;;;;;13.27;100.00;98819.13;5066986;28;20044;-76
2022/10/23 08:57:35;;;;;;;2.55;1.17;;;;;;;13.33;100.00;98798.31;5070038;28;20123;-77
2022/10/23 09:00:06;;;;;;;2.17;1.38;;;;;;;13.59;100.00;98822.06;5073036;28;20044;-78
2022/10/23 09:02:40;;;;;;;10.63;1.45;;;;;;;13.58;100.00;98795.81;5069455;28;20040;-78
2022/10/23 09:05:14;;;;;;;3.95;1.02;;;;;;;13.82;100.00;98809.84;5068630;28;20044;-78
2022/10/23 09:07:57;;;;;;;3.28;1.30;;;;;;;13.81;100.00;98800.78;5070434;28;20094;-77
2022/10/23 09:10:42;;;;;;;5.38;1.13;;;;;;;13.98;100.00;98787.50;5069580;28;20139;-77
2022/10/23 09:13:45;;;;;;;3.55;0.90;;;;;;;14.13;100.00;98797.31;5068632;28;20075;-77
2022/10/23 09:16:19;;;;;;;3.83;0.82;;;;;;;14.19;100.00;98801.06;5066000;28;20067;-77
2022/10/23 09:18:49;;;;;;;2.42;0.70;;;;;;;14.42;100.00;98808.72;5070773;28;20576;-77
2022/10/23 09:21:16;;;;;;;;;;;;;;;14.57;100.00;98816.63;5069460;28;20121;-77
2022/10/23 09:23:42;;;;;;;2.67;1.63;;;;;;;14.61;100.00;98804.25;5069748;28;20027;-77
2022/10/23 09:26:14;;;;;;;4.82;0.80;;;;;;;14.77;100.00;98811.91;5070481;28;20063;-77
2022/10/23 09:28:46;;;;;;;3.72;0.70;;;;;;;14.89;100.00;98817.53;5069990;28;20068;-77
2022/10/23 09:31:13;;;;;;;0.52;0.52;;;;;;;15.01;100.00;98823.13;5068715;28;20217;-77
2022/10/23 09:33:40;;;;;;;1.13;0.70;;;;;;;14.92;100.00;98818.97;5069530;28;20080;-78
2022/10/23 09:36:19;;;;;;;2.72;0.70;;;;;;;14.96;100.00;98820.19;5069141;28;20090;-77
2022/10/23 09:38:49;;;;;;;2.42;0.90;;;;;;;15.15;100.00;98823.84;5070217;28;20056;-77
2022/10/23 09:41:18;;;;;;;;;;;;;;;15.24;100.00;98817.03;5071008;28;20450;-77
2022/10/23 09:43:44;;;;;;;3.22;0.73;;;;;;;15.33;100.00;98803.91;5068147;28;19921;-77
2022/10/23 09:46:11;;;;;;;0.85;0.73;;;;;;;15.42;100.00;98799.00;5069766;28;20048;-77
2022/10/23 09:48:41;;;;;;;1.67;0.73;;;;;;;15.51;100.00;98794.88;5070079;28;20048;-77
2022/10/23 09:51:17;;;;;;;1.15;0.50;;;;;;;15.65;100.00;98785.44;5069955;28;20075;-77
2022/10/23 09:53:49;;;;;;;3.00;0.98;;;;;;;15.75;99.78;98783.03;5061492;28;20044;-78
2022/10/23 09:56:26;;;;;;;1.20;0.75;;;;;;;15.91;100.00;98784.38;5070014;28;20131;-77
2022/10/23 09:58:56;;;;;;;1.73;1.02;;;;;;;16.01;100.00;98770.09;5068592;28;20124;-78
2022/10/23 10:01:23;;;;;;;;;;;;;;;16.11;100.00;98766.84;5070193;28;20446;-78
2022/10/23 10:03:54;;;;;;;0.98;0.70;;;;;;;16.03;98.82;98751.53;5071138;28;19924;-77
2022/10/23 10:06:26;;;;;;;1.08;0.85;;;;;;;16.30;99.57;98767.63;5073646;28;20507;-77
2022/10/23 10:08:55;;;;;;;2.13;0.80;;;;;;;16.46;99.82;98777.13;5069972;28;20083;-77
2022/10/23 10:11:30;;;;;;;3.60;0.52;;;;;;;16.44;97.19;98762.81;5072630;28;20044;-77
2022/10/23 10:14:06;;;;;;;2.72;0.77;;;;;;;16.59;93.35;98773.31;5072388;28;20044;-77
2022/10/23 10:16:42;;;;;;;0.90;0.75;;;;;;;16.75;92.97;98780.88;5054771;28;20055;-78
2022/10/23 10:19:17;;;;;;;3.10;0.50;;;;;;;16.76;91.94;98766.09;5073263;28;20060;-77
2022/10/23 10:21:55;;;;;;;3.42;0.60;;;;;;;16.90;92.10;98785.97;5073380;28;20407;-78
2022/10/23 10:24:28;;;;;;;2.33;0.80;;;;;;;17.08;90.44;98792.47;5072537;28;20498;-77
2022/10/23 10:27:02;;;;;;;3.10;0.88;;;;;;;17.14;88.57;98786.84;5072916;28;20055;-78
2022/10/23 10:29:44;;;;;;;1.52;0.70;;;;;;;17.28;89.77;98786.63;5065210;28;20063;-78
2022/10/23 10:32:24;;;;;;;0.85;0.85;;;;;;;17.29;87.78;98778.16;5071980;28;20048;-78
2022/10/23 10:34:54;;;;;;;;;;;;;;;17.34;85.83;98780.19;5073572;28;20488;-77
2022/10/23 10:37:34;;;;;;;0.85;0.60;;;;;;;17.31;86.06;98765.03;5072105;28;20007;-77
2022/10/23 10:40:10;;;;;;;0.98;0.57;;;;;;;17.44;87.59;98763.09;5076873;28;20105;-78
2022/10/23 10:42:54;;;;;;;0.50;0.38;;;;;;;17.56;87.06;98755.69;5065872;28;20044;-78
2022/10/23 10:45:30;;;;;;;1.63;0.68;;;;;;;17.65;82.54;98756.97;5071329;28;20855;-78
2022/10/23 10:48:14;;;;;;;1.27;0.63;;;;;;;17.72;83.91;98740.38;5073062;28;20044;-78
2022/10/23 10:50:48;;;;;;;0.55;0.50;;;;;;;17.84;82.38;98732.09;5073073;28;20060;-78
2022/10/23 10:53:27;;;;;;;2.50;0.57;;;;;;;17.97;84.72;98711.75;5073380;28;20408;-78
2022/10/23 10:55:58;;;;;;;0.88;0.80;;;;;;;18.14;80.03;98711.81;5072942;28;20492;-78
2022/10/23 10:58:36;;;;;;;1.42;0.70;;;;;;;18.14;81.07;98690.66;5069635;28;20056;-78
2022/10/23 11:01:11;;;;;;;4.40;0.60;;;;;;;18.37;81.46;98708.13;5069246;28;20044;-78
2022/10/23 11:03:42;;;;;;;2.60;0.57;;;;;;;18.29;80.37;98692.88;5072134;28;20055;-78
2022/10/23 11:06:13;;;;;;;0.88;0.77;;;;;;;18.39;81.45;98715.03;5078439;28;20052;-78
2022/10/23 11:08:41;;;;;;;2.00;0.52;;;;;;;18.33;81.82;98712.47;5072952;28;20048;-78
2022/10/23 11:11:13;;;;;;;2.53;0.75;;;;;;;18.36;80.51;98742.22;5072386;28;20419;-78
2022/10/23 11:13:43;;;;;;;3.42;0.85;;;;;;;18.20;80.97;98713.56;5071718;28;20424;-78
2022/10/23 11:16:13;;;;;;;3.22;0.85;;;;;;;18.39;85.60;98734.31;5070883;28;20057;-77
2022/10/23 11:18:41;;;;;;;;;;;;;;;18.47;82.89;98740.50;5072674;28;20056;-78
2022/10/23 11:21:20;;;;;;;1.88;0.45;;;;;;;18.45;80.13;98720.66;5077994;28;19930;-78
2022/10/23 11:24:14;;;;;;;0.52;0.50;;;;;;;18.51;83.54;98719.66;5071607;28;20079;-78
2022/10/23 11:26:51;;;;;;;1.85;0.75;;;;;;;18.48;83.55;98721.00;5072129;28;20044;-78
2022/10/23 11:29:41;;;;;;;1.13;0.70;;;;;;;18.49;84.58;98697.06;5072103;28;20052;-78
2022/10/23 11:32:26;;;;;;;5.15;0.77;;;;;;;18.63;81.72;98703.09;5070957;28;20055;-78
2022/10/23 11:35:05;;;;;;;2.25;1.20;;;;;;;18.67;83.22;98699.59;5074142;28;20393;-78
2022/10/23 11:37:32;;;;;;;1.33;0.75;;;;;;;18.61;83.51;98678.56;5064406;28;20404;-78
2022/10/23 11:40:21;;;;;;;0.85;0.73;;;;;;;18.70;82.12;98687.25;5071992;28;20548;-78
2022/10/23 11:42:49;;;;;;;2.05;1.00;;;;;;;18.60;84.03;98662.28;5071278;28;20460;-78
2022/10/23 11:45:28;;;;;;;1.10;0.70;;;;;;;18.77;80.59;98679.63;5071582;28;20055;-78
2022/10/23 11:48:00;;;;;;;1.33;0.60;;;;;;;18.86;81.58;98677.31;5070519;28;20055;-78